sensor_id;sensor_type;location;lat;lon;timestamp;P1;durP1;ratioP1;P2;durP2;ratioP2
9924;SDS011;5001;51.674;7.868;2023-08-07T09:16:09;0.40;;;0.40;;
9924;SDS011;5001;51.674;7.868;2023-08-07T09:18:49;0.30;;;0.30;;
9924;SDS011;5001;51.674;7.868;2023-08-07T09:21:16;0.30;;;0.30;;
9924;SDS011;5001;51.674;7.868;2023-08-07T09:23:44;0.40;;;0.40;;
9924;SDS011;5001;51.674;7.868;2023-08-07T09:26:11;0.40;;;0.40;;
9924;SDS011;5001;51.674;7.868;2023-08-07T09:28:38;0.40;;;0.40;;
9924;SDS011;5001;51.674;7.868;2023-08-07T09:31:06;0.40;;;0.40;;
9924;SDS011;5001;51.674;7.868;2023-08-07T09:33:35;1.42;;;1.40;;
9924;SDS011;5001;51.674;7.868;2023-08-07T09:36:03;0.40;;;0.40;;
9924;SDS011;5001;51.674;7.868;2023-08-07T09:38:31;0.40;;;0.40;;
9924;SDS011;5001;51.674;7.868;2023-08-07T09:41:02;0.47;;;0.47;;
9924;SDS011;5001;51.674;7.868;2023-08-07T09:43:33;0.60;;;0.60;;
9924;SDS011;5001;51.674;7.868;2023-08-07T09:46:03;0.80;;;0.80;;
9924;SDS011;5001;51.674;7.868;2023-08-07T09:48:40;0.80;;;0.80;;
9924;SDS011;5001;51.674;7.868;2023-08-07T09:51:09;0.80;;;0.80;;
9924;SDS011;5001;51.674;7.868;2023-08-07T09:53:37;0.70;;;0.70;;
9924;SDS011;5001;51.674;7.868;2023-08-07T09:56:05;0.70;;;0.70;;
9924;SDS011;5001;51.674;7.868;2023-08-07T09:58:32;0.80;;;0.80;;
9924;SDS011;5001;51.674;7.868;2023-08-07T10:01:03;0.70;;;0.70;;
9924;SDS011;5001;51.674;7.868;2023-08-07T10:03:31;0.70;;;0.70;;
9924;SDS011;5001;51.674;7.868;2023-08-07T10:05:58;0.80;;;0.80;;
9924;SDS011;5001;51.674;7.868;2023-08-07T10:08:26;0.80;;;0.80;;
9924;SDS011;5001;51.674;7.868;2023-08-07T10:10:54;0.90;;;0.90;;
9924;SDS011;5001;51.674;7.868;2023-08-07T10:13:21;0.98;;;0.98;;
9924;SDS011;5001;51.674;7.868;2023-08-07T10:16:04;0.90;;;0.90;;
9924;SDS011;5001;51.674;7.868;2023-08-07T10:18:32;1.00;;;1.00;;
9924;SDS011;5001;51.674;7.868;2023-08-07T10:21:00;0.90;;;0.90;;
9924;SDS011;5001;51.674;7.868;2023-08-07T10:23:28;1.00;;;1.00;;
9924;SDS011;5001;51.674;7.868;2023-08-07T10:25:57;1.00;;;1.00;;
9924;SDS011;5001;51.674;7.868;2023-08-07T10:28:24;0.93;;;0.93;;
9924;SDS011;5001;51.674;7.868;2023-08-07T10:30:55;1.00;;;1.00;;
9924;SDS011;5001;51.674;7.868;2023-08-07T10:33:23;1.05;;;1.05;;
9924;SDS011;5001;51.674;7.868;2023-08-07T10:35:51;1.00;;;1.00;;
9924;SDS011;5001;51.674;7.868;2023-08-07T10:38:20;1.10;;;1.10;;
9924;SDS011;5001;51.674;7.868;2023-08-07T10:43:44;1.30;;;1.30;;
9924;SDS011;5001;51.674;7.868;2023-08-07T10:46:14;1.20;;;1.20;;
9924;SDS011;5001;51.674;7.868;2023-08-07T10:48:43;1.40;;;1.40;;
9924;SDS011;5001;51.674;7.868;2023-08-07T10:51:13;1.23;;;1.23;;
9924;SDS011;5001;51.674;7.868;2023-08-07T10:53:46;1.20;;;1.20;;
9924;SDS011;5001;51.674;7.868;2023-08-07T10:58:47;1.42;;;1.40;;
9924;SDS011;5001;51.674;7.868;2023-08-07T11:01:19;6.60;;;2.80;;
9924;SDS011;5001;51.674;7.868;2023-08-07T11:03:59;2.78;;;2.50;;
9924;SDS011;5001;51.674;7.868;2023-08-07T11:06:36;3.88;;;2.40;;
9924;SDS011;5001;51.674;7.868;2023-08-07T11:09:07;3.25;;;2.65;;
9924;SDS011;5001;51.674;7.868;2023-08-07T11:14:10;3.17;;;2.78;;
9924;SDS011;5001;51.674;7.868;2023-08-07T11:16:39;6.57;;;3.40;;
9924;SDS011;5001;51.674;7.868;2023-08-07T11:19:06;6.57;;;3.28;;
9924;SDS011;5001;51.674;7.868;2023-08-07T11:21:35;5.55;;;2.95;;
9924;SDS011;5001;51.674;7.868;2023-08-07T11:24:03;5.35;;;3.33;;
9924;SDS011;5001;51.674;7.868;2023-08-07T11:26:30;5.85;;;3.25;;
9924;SDS011;5001;51.674;7.868;2023-08-07T11:28:57;2.83;;;2.53;;
9924;SDS011;5001;51.674;7.868;2023-08-07T11:31:25;4.97;;;3.28;;
9924;SDS011;5001;51.674;7.868;2023-08-07T11:33:52;6.95;;;2.97;;
9924;SDS011;5001;51.674;7.868;2023-08-07T11:36:21;5.25;;;3.08;;
9924;SDS011;5001;51.674;7.868;2023-08-07T11:38:49;5.85;;;2.58;;
9924;SDS011;5001;51.674;7.868;2023-08-07T11:41:16;2.47;;;2.28;;
9924;SDS011;5001;51.674;7.868;2023-08-07T11:43:44;4.25;;;2.67;;
9924;SDS011;5001;51.674;7.868;2023-08-07T11:46:12;3.90;;;2.55;;
9924;SDS011;5001;51.674;7.868;2023-08-07T11:48:42;7.18;;;2.65;;
9924;SDS011;5001;51.674;7.868;2023-08-07T11:51:10;6.30;;;2.63;;
9924;SDS011;5001;51.674;7.868;2023-08-07T11:53:38;2.63;;;2.30;;
9924;SDS011;5001;51.674;7.868;2023-08-07T11:56:07;3.13;;;2.35;;
9924;SDS011;5001;51.674;7.868;2023-08-07T11:58:37;5.95;;;2.53;;
9924;SDS011;5001;51.674;7.868;2023-08-07T12:01:26;3.00;;;2.38;;
9924;SDS011;5001;51.674;7.868;2023-08-07T12:06:33;5.38;;;2.88;;
9924;SDS011;5001;51.674;7.868;2023-08-07T12:09:02;4.13;;;2.85;;
9924;SDS011;5001;51.674;7.868;2023-08-07T12:11:29;5.15;;;2.30;;
9924;SDS011;5001;51.674;7.868;2023-08-07T12:13:59;4.65;;;2.53;;
9924;SDS011;5001;51.674;7.868;2023-08-07T12:16:33;2.75;;;2.47;;
9924;SDS011;5001;51.674;7.868;2023-08-07T12:19:01;5.13;;;2.35;;
9924;SDS011;5001;51.674;7.868;2023-08-07T12:21:30;3.50;;;2.60;;
9924;SDS011;5001;51.674;7.868;2023-08-07T12:23:59;4.82;;;2.80;;
9924;SDS011;5001;51.674;7.868;2023-08-07T12:26:26;4.43;;;2.58;;
9924;SDS011;5001;51.674;7.868;2023-08-07T12:28:54;3.00;;;2.47;;
9924;SDS011;5001;51.674;7.868;2023-08-07T12:31:21;4.25;;;2.50;;
9924;SDS011;5001;51.674;7.868;2023-08-07T12:33:48;3.08;;;2.40;;
9924;SDS011;5001;51.674;7.868;2023-08-07T12:36:16;5.32;;;2.70;;
9924;SDS011;5001;51.674;7.868;2023-08-07T12:38:46;4.25;;;3.00;;
9924;SDS011;5001;51.674;7.868;2023-08-07T12:41:13;2.50;;;2.30;;
9924;SDS011;5001;51.674;7.868;2023-08-07T12:43:43;3.45;;;2.78;;
9924;SDS011;5001;51.674;7.868;2023-08-07T12:46:10;4.03;;;2.85;;
9924;SDS011;5001;51.674;7.868;2023-08-07T12:48:40;6.57;;;2.35;;
9924;SDS011;5001;51.674;7.868;2023-08-07T12:51:07;2.72;;;2.53;;
9924;SDS011;5001;51.674;7.868;2023-08-07T12:53:34;3.28;;;2.72;;
9924;SDS011;5001;51.674;7.868;2023-08-07T12:56:01;2.75;;;2.38;;
9924;SDS011;5001;51.674;7.868;2023-08-07T12:58:30;5.40;;;2.70;;
9924;SDS011;5001;51.674;7.868;2023-08-07T13:00:57;2.55;;;2.30;;
9924;SDS011;5001;51.674;7.868;2023-08-07T13:03:24;3.92;;;2.17;;
9924;SDS011;5001;51.674;7.868;2023-08-07T13:05:51;3.50;;;2.25;;
9924;SDS011;5001;51.674;7.868;2023-08-07T13:08:18;5.75;;;2.40;;
9924;SDS011;5001;51.674;7.868;2023-08-07T13:10:45;2.40;;;2.20;;
9924;SDS011;5001;51.674;7.868;2023-08-07T13:13:15;2.63;;;1.98;;
9924;SDS011;5001;51.674;7.868;2023-08-07T13:15:42;3.03;;;2.30;;
9924;SDS011;5001;51.674;7.868;2023-08-07T13:18:09;3.13;;;2.10;;
9924;SDS011;5001;51.674;7.868;2023-08-07T13:20:37;2.58;;;2.25;;
9924;SDS011;5001;51.674;7.868;2023-08-07T13:23:04;4.60;;;2.10;;
9924;SDS011;5001;51.674;7.868;2023-08-07T13:25:33;5.35;;;2.40;;
9924;SDS011;5001;51.674;7.868;2023-08-07T13:28:00;2.90;;;2.20;;
9924;SDS011;5001;51.674;7.868;2023-08-07T13:30:30;2.78;;;2.13;;
9924;SDS011;5001;51.674;7.868;2023-08-07T13:33:02;2.17;;;1.95;;
9924;SDS011;5001;51.674;7.868;2023-08-07T13:35:30;4.32;;;2.50;;
9924;SDS011;5001;51.674;7.868;2023-08-07T13:37:57;4.18;;;2.58;;
9924;SDS011;5001;51.674;7.868;2023-08-07T13:40:24;3.72;;;2.40;;
9924;SDS011;5001;51.674;7.868;2023-08-07T13:42:51;3.13;;;2.30;;
9924;SDS011;5001;51.674;7.868;2023-08-07T13:45:19;4.22;;;2.45;;
9924;SDS011;5001;51.674;7.868;2023-08-07T13:47:46;3.08;;;2.22;;
9924;SDS011;5001;51.674;7.868;2023-08-07T13:50:14;6.03;;;2.33;;
9924;SDS011;5001;51.674;7.868;2023-08-07T13:52:41;2.45;;;2.22;;
9924;SDS011;5001;51.674;7.868;2023-08-07T13:55:08;3.15;;;2.20;;
9924;SDS011;5001;51.674;7.868;2023-08-07T13:57:36;2.75;;;2.00;;
9924;SDS011;5001;51.674;7.868;2023-08-07T14:00:03;4.13;;;2.67;;
9924;SDS011;5001;51.674;7.868;2023-08-07T14:02:32;7.32;;;2.60;;
9924;SDS011;5001;51.674;7.868;2023-08-07T14:05:01;6.78;;;2.80;;
9924;SDS011;5001;51.674;7.868;2023-08-07T14:07:28;6.28;;;2.40;;
9924;SDS011;5001;51.674;7.868;2023-08-07T14:09:55;4.65;;;2.67;;
9924;SDS011;5001;51.674;7.868;2023-08-07T14:12:23;6.47;;;2.58;;
9924;SDS011;5001;51.674;7.868;2023-08-07T14:14:50;4.68;;;3.08;;
9924;SDS011;5001;51.674;7.868;2023-08-07T14:17:17;6.10;;;3.70;;
9924;SDS011;5001;51.674;7.868;2023-08-07T14:19:44;5.65;;;2.80;;
9924;SDS011;5001;51.674;7.868;2023-08-07T14:22:10;3.85;;;2.60;;
9924;SDS011;5001;51.674;7.868;2023-08-07T14:24:38;2.30;;;2.13;;
9924;SDS011;5001;51.674;7.868;2023-08-07T14:27:05;4.10;;;2.15;;
9924;SDS011;5001;51.674;7.868;2023-08-07T14:29:32;5.40;;;2.38;;
9924;SDS011;5001;51.674;7.868;2023-08-07T14:31:59;5.57;;;2.60;;
9924;SDS011;5001;51.674;7.868;2023-08-07T14:34:27;2.50;;;2.10;;
9924;SDS011;5001;51.674;7.868;2023-08-07T14:36:54;4.20;;;2.10;;
9924;SDS011;5001;51.674;7.868;2023-08-07T14:39:21;5.28;;;2.67;;
9924;SDS011;5001;51.674;7.868;2023-08-07T14:41:50;2.50;;;2.05;;
9924;SDS011;5001;51.674;7.868;2023-08-07T14:44:18;4.75;;;2.10;;
9924;SDS011;5001;51.674;7.868;2023-08-07T14:46:45;3.63;;;1.98;;
9924;SDS011;5001;51.674;7.868;2023-08-07T14:49:13;2.05;;;1.75;;
9924;SDS011;5001;51.674;7.868;2023-08-07T14:51:40;5.40;;;2.88;;
9924;SDS011;5001;51.674;7.868;2023-08-07T14:54:08;3.97;;;2.00;;
9924;SDS011;5001;51.674;7.868;2023-08-07T14:56:36;3.38;;;1.92;;
9924;SDS011;5001;51.674;7.868;2023-08-07T14:59:03;4.95;;;1.98;;
9924;SDS011;5001;51.674;7.868;2023-08-07T15:01:30;3.67;;;2.03;;
9924;SDS011;5001;51.674;7.868;2023-08-07T15:03:57;6.65;;;2.00;;
9924;SDS011;5001;51.674;7.868;2023-08-07T15:06:25;4.60;;;2.30;;
9924;SDS011;5001;51.674;7.868;2023-08-07T15:08:52;6.75;;;2.05;;
9924;SDS011;5001;51.674;7.868;2023-08-07T15:11:19;3.85;;;1.90;;
9924;SDS011;5001;51.674;7.868;2023-08-07T15:13:46;3.67;;;1.80;;
9924;SDS011;5001;51.674;7.868;2023-08-07T15:16:13;2.75;;;2.10;;
9924;SDS011;5001;51.674;7.868;2023-08-07T15:18:41;10.25;;;2.10;;
9924;SDS011;5001;51.674;7.868;2023-08-07T15:21:08;3.83;;;2.40;;
9924;SDS011;5001;51.674;7.868;2023-08-07T15:23:35;2.53;;;2.22;;
9924;SDS011;5001;51.674;7.868;2023-08-07T15:26:02;3.47;;;2.40;;
9924;SDS011;5001;51.674;7.868;2023-08-07T15:28:29;8.60;;;3.13;;
9924;SDS011;5001;51.674;7.868;2023-08-07T15:30:56;2.75;;;2.15;;
9924;SDS011;5001;51.674;7.868;2023-08-07T15:33:23;2.92;;;2.20;;
9924;SDS011;5001;51.674;7.868;2023-08-07T15:35:52;5.53;;;2.33;;
9924;SDS011;5001;51.674;7.868;2023-08-07T15:38:20;3.72;;;2.20;;
9924;SDS011;5001;51.674;7.868;2023-08-07T15:40:48;6.32;;;2.75;;
9924;SDS011;5001;51.674;7.868;2023-08-07T15:43:15;6.85;;;4.10;;
9924;SDS011;5001;51.674;7.868;2023-08-07T15:45:45;8.02;;;4.07;;
9924;SDS011;5001;51.674;7.868;2023-08-07T15:48:19;9.75;;;4.90;;
9924;SDS011;5001;51.674;7.868;2023-08-07T15:50:46;12.02;;;4.47;;
9924;SDS011;5001;51.674;7.868;2023-08-07T15:53:13;6.78;;;3.83;;
9924;SDS011;5001;51.674;7.868;2023-08-07T15:55:41;6.75;;;3.28;;
9924;SDS011;5001;51.674;7.868;2023-08-07T15:58:08;5.95;;;3.42;;
9924;SDS011;5001;51.674;7.868;2023-08-07T16:00:35;4.78;;;3.10;;
9924;SDS011;5001;51.674;7.868;2023-08-07T16:03:03;5.90;;;2.80;;
9924;SDS011;5001;51.674;7.868;2023-08-07T16:05:32;3.85;;;2.35;;
9924;SDS011;5001;51.674;7.868;2023-08-07T16:07:59;2.85;;;2.20;;
9924;SDS011;5001;51.674;7.868;2023-08-07T16:10:26;3.47;;;2.63;;
9924;SDS011;5001;51.674;7.868;2023-08-07T16:12:54;2.60;;;2.20;;
9924;SDS011;5001;51.674;7.868;2023-08-07T16:15:22;5.05;;;2.15;;
9924;SDS011;5001;51.674;7.868;2023-08-07T16:17:50;6.03;;;2.67;;
9924;SDS011;5001;51.674;7.868;2023-08-07T16:20:17;5.20;;;2.50;;
9924;SDS011;5001;51.674;7.868;2023-08-07T16:22:45;2.45;;;2.03;;
9924;SDS011;5001;51.674;7.868;2023-08-07T16:25:12;3.45;;;2.17;;
9924;SDS011;5001;51.674;7.868;2023-08-07T16:27:39;3.35;;;2.47;;
9924;SDS011;5001;51.674;7.868;2023-08-07T16:30:07;4.72;;;2.22;;
9924;SDS011;5001;51.674;7.868;2023-08-07T16:32:35;3.03;;;2.20;;
9924;SDS011;5001;51.674;7.868;2023-08-07T16:35:03;3.60;;;2.10;;
9924;SDS011;5001;51.674;7.868;2023-08-07T16:37:31;2.72;;;2.38;;
9924;SDS011;5001;51.674;7.868;2023-08-07T16:39:59;2.83;;;2.15;;
9924;SDS011;5001;51.674;7.868;2023-08-07T16:42:26;2.58;;;2.20;;
9924;SDS011;5001;51.674;7.868;2023-08-07T16:44:53;2.63;;;1.75;;
9924;SDS011;5001;51.674;7.868;2023-08-07T16:47:20;6.07;;;2.40;;
9924;SDS011;5001;51.674;7.868;2023-08-07T16:49:49;3.08;;;1.95;;
9924;SDS011;5001;51.674;7.868;2023-08-07T16:52:17;2.58;;;2.00;;
9924;SDS011;5001;51.674;7.868;2023-08-07T16:54:44;4.82;;;2.85;;
9924;SDS011;5001;51.674;7.868;2023-08-07T16:57:14;2.78;;;1.95;;
9924;SDS011;5001;51.674;7.868;2023-08-07T16:59:46;6.65;;;2.47;;
9924;SDS011;5001;51.674;7.868;2023-08-07T17:02:13;2.88;;;2.08;;
9924;SDS011;5001;51.674;7.868;2023-08-07T17:04:41;2.90;;;2.15;;
9924;SDS011;5001;51.674;7.868;2023-08-07T17:07:08;4.13;;;2.53;;
9924;SDS011;5001;51.674;7.868;2023-08-07T17:09:35;4.68;;;2.20;;
9924;SDS011;5001;51.674;7.868;2023-08-07T17:12:03;5.35;;;2.28;;
9924;SDS011;5001;51.674;7.868;2023-08-07T17:14:30;4.70;;;2.53;;
9924;SDS011;5001;51.674;7.868;2023-08-07T17:16:57;6.32;;;2.30;;
9924;SDS011;5001;51.674;7.868;2023-08-07T17:19:25;7.40;;;3.28;;
9924;SDS011;5001;51.674;7.868;2023-08-07T17:21:52;4.32;;;2.38;;
9924;SDS011;5001;51.674;7.868;2023-08-07T17:24:19;2.35;;;2.08;;
9924;SDS011;5001;51.674;7.868;2023-08-07T17:26:46;2.90;;;1.95;;
9924;SDS011;5001;51.674;7.868;2023-08-07T17:29:13;2.05;;;1.95;;
9924;SDS011;5001;51.674;7.868;2023-08-07T17:31:40;3.50;;;2.25;;
9924;SDS011;5001;51.674;7.868;2023-08-07T17:34:07;3.25;;;2.42;;
9924;SDS011;5001;51.674;7.868;2023-08-07T17:36:34;4.57;;;2.70;;
9924;SDS011;5001;51.674;7.868;2023-08-07T17:39:01;5.15;;;2.95;;
9924;SDS011;5001;51.674;7.868;2023-08-07T17:41:28;3.97;;;2.20;;
9924;SDS011;5001;51.674;7.868;2023-08-07T17:43:55;6.75;;;3.50;;
9924;SDS011;5001;51.674;7.868;2023-08-07T17:46:22;5.32;;;2.90;;
9924;SDS011;5001;51.674;7.868;2023-08-07T17:48:51;4.50;;;2.05;;
9924;SDS011;5001;51.674;7.868;2023-08-07T17:51:18;7.13;;;2.30;;
9924;SDS011;5001;51.674;7.868;2023-08-07T17:53:46;4.22;;;2.40;;
9924;SDS011;5001;51.674;7.868;2023-08-07T17:56:13;4.40;;;2.15;;
9924;SDS011;5001;51.674;7.868;2023-08-07T17:58:40;2.20;;;2.00;;
9924;SDS011;5001;51.674;7.868;2023-08-07T18:01:07;3.03;;;2.45;;
9924;SDS011;5001;51.674;7.868;2023-08-07T18:03:35;4.45;;;1.80;;
9924;SDS011;5001;51.674;7.868;2023-08-07T18:06:02;6.47;;;2.08;;
9924;SDS011;5001;51.674;7.868;2023-08-07T18:08:29;4.00;;;2.13;;
9924;SDS011;5001;51.674;7.868;2023-08-07T18:10:56;3.08;;;2.08;;
9924;SDS011;5001;51.674;7.868;2023-08-07T18:13:24;6.35;;;2.10;;
9924;SDS011;5001;51.674;7.868;2023-08-07T18:15:51;5.97;;;2.63;;
9924;SDS011;5001;51.674;7.868;2023-08-07T18:18:18;2.53;;;2.08;;
9924;SDS011;5001;51.674;7.868;2023-08-07T18:20:45;5.68;;;2.22;;
9924;SDS011;5001;51.674;7.868;2023-08-07T18:23:13;2.38;;;1.95;;
9924;SDS011;5001;51.674;7.868;2023-08-07T18:25:40;2.40;;;2.15;;
9924;SDS011;5001;51.674;7.868;2023-08-07T18:28:07;3.65;;;2.10;;
9924;SDS011;5001;51.674;7.868;2023-08-07T18:30:35;2.60;;;2.05;;
9924;SDS011;5001;51.674;7.868;2023-08-07T18:33:02;4.18;;;2.15;;
9924;SDS011;5001;51.674;7.868;2023-08-07T18:35:29;4.25;;;2.00;;
9924;SDS011;5001;51.674;7.868;2023-08-07T18:37:56;2.65;;;2.35;;
9924;SDS011;5001;51.674;7.868;2023-08-07T18:40:23;3.70;;;2.15;;
9924;SDS011;5001;51.674;7.868;2023-08-07T18:42:50;2.22;;;1.80;;
9924;SDS011;5001;51.674;7.868;2023-08-07T18:45:17;2.58;;;1.80;;
9924;SDS011;5001;51.674;7.868;2023-08-07T18:47:44;2.10;;;1.95;;
9924;SDS011;5001;51.674;7.868;2023-08-07T18:50:11;5.60;;;2.30;;
9924;SDS011;5001;51.674;7.868;2023-08-07T18:52:38;5.18;;;2.65;;
9924;SDS011;5001;51.674;7.868;2023-08-07T18:55:06;3.15;;;2.60;;
9924;SDS011;5001;51.674;7.868;2023-08-07T18:57:33;4.45;;;2.30;;
9924;SDS011;5001;51.674;7.868;2023-08-07T19:00:00;4.07;;;2.85;;
9924;SDS011;5001;51.674;7.868;2023-08-07T19:02:28;4.70;;;2.50;;
9924;SDS011;5001;51.674;7.868;2023-08-07T19:04:55;5.38;;;2.53;;
9924;SDS011;5001;51.674;7.868;2023-08-07T19:07:22;20.05;;;8.10;;
9924;SDS011;5001;51.674;7.868;2023-08-07T19:09:49;7.30;;;3.75;;
9924;SDS011;5001;51.674;7.868;2023-08-07T19:12:16;6.00;;;3.20;;
9924;SDS011;5001;51.674;7.868;2023-08-07T19:14:43;3.58;;;3.22;;
9924;SDS011;5001;51.674;7.868;2023-08-07T19:17:10;4.13;;;3.15;;
9924;SDS011;5001;51.674;7.868;2023-08-07T19:19:37;7.53;;;3.30;;
9924;SDS011;5001;51.674;7.868;2023-08-07T19:22:04;6.63;;;3.60;;
9924;SDS011;5001;51.674;7.868;2023-08-07T19:24:31;2.70;;;2.28;;
9924;SDS011;5001;51.674;7.868;2023-08-07T19:26:58;6.60;;;2.72;;
9924;SDS011;5001;51.674;7.868;2023-08-07T19:29:26;4.20;;;3.17;;
9924;SDS011;5001;51.674;7.868;2023-08-07T19:31:53;4.03;;;2.50;;
9924;SDS011;5001;51.674;7.868;2023-08-07T19:34:20;4.55;;;2.63;;
9924;SDS011;5001;51.674;7.868;2023-08-07T19:36:48;3.10;;;2.53;;
9924;SDS011;5001;51.674;7.868;2023-08-07T19:39:17;2.45;;;2.00;;
9924;SDS011;5001;51.674;7.868;2023-08-07T19:41:44;2.92;;;2.33;;
9924;SDS011;5001;51.674;7.868;2023-08-07T19:44:11;4.88;;;2.33;;
9924;SDS011;5001;51.674;7.868;2023-08-07T19:46:38;2.65;;;2.28;;
9924;SDS011;5001;51.674;7.868;2023-08-07T19:49:05;3.65;;;2.30;;
9924;SDS011;5001;51.674;7.868;2023-08-07T19:51:32;3.92;;;2.03;;
9924;SDS011;5001;51.674;7.868;2023-08-07T19:53:59;6.65;;;2.55;;
9924;SDS011;5001;51.674;7.868;2023-08-07T19:56:28;4.50;;;2.40;;
9924;SDS011;5001;51.674;7.868;2023-08-07T19:58:59;4.03;;;2.35;;
9924;SDS011;5001;51.674;7.868;2023-08-07T20:01:30;2.72;;;2.42;;
9924;SDS011;5001;51.674;7.868;2023-08-07T20:03:57;2.47;;;2.00;;
9924;SDS011;5001;51.674;7.868;2023-08-07T20:06:34;6.72;;;2.10;;
9924;SDS011;5001;51.674;7.868;2023-08-07T20:09:01;3.88;;;2.53;;
9924;SDS011;5001;51.674;7.868;2023-08-07T20:11:33;3.33;;;2.10;;
9924;SDS011;5001;51.674;7.868;2023-08-07T20:14:04;3.17;;;1.90;;
9924;SDS011;5001;51.674;7.868;2023-08-07T20:16:31;4.27;;;2.00;;
9924;SDS011;5001;51.674;7.868;2023-08-07T20:18:58;4.03;;;1.80;;
9924;SDS011;5001;51.674;7.868;2023-08-07T20:21:26;9.90;;;2.65;;
9924;SDS011;5001;51.674;7.868;2023-08-07T20:23:53;2.25;;;1.92;;
9924;SDS011;5001;51.674;7.868;2023-08-07T20:26:21;2.15;;;1.95;;
9924;SDS011;5001;51.674;7.868;2023-08-07T20:28:48;4.10;;;2.30;;
9924;SDS011;5001;51.674;7.868;2023-08-07T20:31:15;2.50;;;1.87;;
9924;SDS011;5001;51.674;7.868;2023-08-07T20:33:42;2.43;;;2.10;;
9924;SDS011;5001;51.674;7.868;2023-08-07T20:36:09;3.10;;;2.37;;
9924;SDS011;5001;51.674;7.868;2023-08-07T20:38:36;4.23;;;3.10;;
9924;SDS011;5001;51.674;7.868;2023-08-07T20:41:03;2.15;;;1.70;;
9924;SDS011;5001;51.674;7.868;2023-08-07T20:43:30;4.93;;;2.50;;
9924;SDS011;5001;51.674;7.868;2023-08-07T20:45:58;5.67;;;2.77;;
9924;SDS011;5001;51.674;7.868;2023-08-07T20:48:25;2.73;;;2.13;;
9924;SDS011;5001;51.674;7.868;2023-08-07T20:50:52;4.47;;;2.20;;
9924;SDS011;5001;51.674;7.868;2023-08-07T20:53:19;3.20;;;2.57;;
9924;SDS011;5001;51.674;7.868;2023-08-07T20:55:48;3.37;;;2.63;;
9924;SDS011;5001;51.674;7.868;2023-08-07T20:58:15;8.37;;;2.50;;
9924;SDS011;5001;51.674;7.868;2023-08-07T21:00:42;2.70;;;2.23;;
9924;SDS011;5001;51.674;7.868;2023-08-07T21:03:09;2.40;;;1.87;;
9924;SDS011;5001;51.674;7.868;2023-08-07T21:05:36;4.90;;;2.60;;
9924;SDS011;5001;51.674;7.868;2023-08-07T21:08:03;3.37;;;2.00;;
9924;SDS011;5001;51.674;7.868;2023-08-07T21:10:30;3.83;;;1.80;;
9924;SDS011;5001;51.674;7.868;2023-08-07T21:12:58;2.73;;;2.33;;
9924;SDS011;5001;51.674;7.868;2023-08-07T21:15:24;3.60;;;2.20;;
9924;SDS011;5001;51.674;7.868;2023-08-07T21:17:52;4.33;;;1.80;;
9924;SDS011;5001;51.674;7.868;2023-08-07T21:20:19;6.77;;;1.97;;
9924;SDS011;5001;51.674;7.868;2023-08-07T21:22:46;3.93;;;2.13;;
9924;SDS011;5001;51.674;7.868;2023-08-07T21:25:13;2.93;;;2.00;;
9924;SDS011;5001;51.674;7.868;2023-08-07T21:27:40;2.87;;;2.00;;
9924;SDS011;5001;51.674;7.868;2023-08-07T21:30:07;3.53;;;1.80;;
9924;SDS011;5001;51.674;7.868;2023-08-07T21:32:34;3.20;;;1.90;;
9924;SDS011;5001;51.674;7.868;2023-08-07T21:35:01;2.50;;;2.10;;
9924;SDS011;5001;51.674;7.868;2023-08-07T21:37:31;3.57;;;2.40;;
9924;SDS011;5001;51.674;7.868;2023-08-07T21:39:59;3.17;;;2.27;;
9924;SDS011;5001;51.674;7.868;2023-08-07T21:42:27;3.27;;;2.10;;
9924;SDS011;5001;51.674;7.868;2023-08-07T21:44:54;4.20;;;2.37;;
9924;SDS011;5001;51.674;7.868;2023-08-07T21:47:22;5.80;;;3.70;;
9924;SDS011;5001;51.674;7.868;2023-08-07T21:49:49;3.30;;;2.10;;
9924;SDS011;5001;51.674;7.868;2023-08-07T21:52:16;3.57;;;1.83;;
9924;SDS011;5001;51.674;7.868;2023-08-07T21:54:43;2.97;;;1.83;;
9924;SDS011;5001;51.674;7.868;2023-08-07T21:57:10;4.17;;;2.57;;
9924;SDS011;5001;51.674;7.868;2023-08-07T21:59:37;3.53;;;1.90;;
9924;SDS011;5001;51.674;7.868;2023-08-07T22:02:04;5.57;;;2.60;;
9924;SDS011;5001;51.674;7.868;2023-08-07T22:04:31;3.80;;;2.07;;
9924;SDS011;5001;51.674;7.868;2023-08-07T22:06:58;2.93;;;1.97;;
9924;SDS011;5001;51.674;7.868;2023-08-07T22:09:25;6.13;;;2.20;;
9924;SDS011;5001;51.674;7.868;2023-08-07T22:11:52;6.53;;;3.87;;
9924;SDS011;5001;51.674;7.868;2023-08-07T22:14:20;2.53;;;2.23;;
9924;SDS011;5001;51.674;7.868;2023-08-07T22:16:47;2.90;;;1.93;;
9924;SDS011;5001;51.674;7.868;2023-08-07T22:19:16;2.10;;;1.90;;
9924;SDS011;5001;51.674;7.868;2023-08-07T22:21:43;4.33;;;2.53;;
9924;SDS011;5001;51.674;7.868;2023-08-07T22:24:10;10.87;;;5.00;;
9924;SDS011;5001;51.674;7.868;2023-08-07T22:26:37;6.43;;;3.10;;
9924;SDS011;5001;51.674;7.868;2023-08-07T22:29:04;6.00;;;2.83;;
9924;SDS011;5001;51.674;7.868;2023-08-07T22:31:31;15.93;;;6.23;;
9924;SDS011;5001;51.674;7.868;2023-08-07T22:34:05;17.10;;;8.40;;
9924;SDS011;5001;51.674;7.868;2023-08-07T22:36:32;18.30;;;9.63;;
9924;SDS011;5001;51.674;7.868;2023-08-07T22:38:59;25.13;;;11.90;;
9924;SDS011;5001;51.674;7.868;2023-08-07T22:41:26;7.17;;;3.13;;
9924;SDS011;5001;51.674;7.868;2023-08-07T22:43:54;4.60;;;2.90;;
9924;SDS011;5001;51.674;7.868;2023-08-07T22:46:21;3.23;;;2.83;;
9924;SDS011;5001;51.674;7.868;2023-08-07T22:48:48;4.93;;;3.67;;
9924;SDS011;5001;51.674;7.868;2023-08-07T22:51:15;3.77;;;3.20;;
9924;SDS011;5001;51.674;7.868;2023-08-07T22:53:42;3.83;;;2.63;;
9924;SDS011;5001;51.674;7.868;2023-08-07T22:56:09;3.60;;;2.80;;
9924;SDS011;5001;51.674;7.868;2023-08-07T22:58:35;3.77;;;2.70;;
9924;SDS011;5001;51.674;7.868;2023-08-07T23:01:02;3.40;;;2.37;;
9924;SDS011;5001;51.674;7.868;2023-08-07T23:03:29;4.10;;;2.47;;
9924;SDS011;5001;51.674;7.868;2023-08-07T23:05:57;3.97;;;2.90;;
9924;SDS011;5001;51.674;7.868;2023-08-07T23:08:24;4.27;;;2.63;;
9924;SDS011;5001;51.674;7.868;2023-08-07T23:10:51;4.70;;;3.47;;
9924;SDS011;5001;51.674;7.868;2023-08-07T23:13:20;4.30;;;2.93;;
9924;SDS011;5001;51.674;7.868;2023-08-07T23:15:47;4.87;;;3.13;;
9924;SDS011;5001;51.674;7.868;2023-08-07T23:18:15;5.73;;;3.20;;
9924;SDS011;5001;51.674;7.868;2023-08-07T23:20:42;8.97;;;4.47;;
9924;SDS011;5001;51.674;7.868;2023-08-07T23:23:09;9.90;;;5.13;;
9924;SDS011;5001;51.674;7.868;2023-08-07T23:25:37;4.10;;;2.73;;
9924;SDS011;5001;51.674;7.868;2023-08-07T23:28:06;3.20;;;2.60;;
9924;SDS011;5001;51.674;7.868;2023-08-07T23:30:36;6.30;;;2.70;;
9924;SDS011;5001;51.674;7.868;2023-08-07T23:33:03;5.07;;;2.63;;
9924;SDS011;5001;51.674;7.868;2023-08-07T23:35:30;7.63;;;2.67;;
9924;SDS011;5001;51.674;7.868;2023-08-07T23:37:57;3.97;;;2.60;;
9924;SDS011;5001;51.674;7.868;2023-08-07T23:40:24;3.53;;;2.13;;
9924;SDS011;5001;51.674;7.868;2023-08-07T23:42:51;4.57;;;2.50;;
9924;SDS011;5001;51.674;7.868;2023-08-07T23:45:18;4.13;;;2.17;;
9924;SDS011;5001;51.674;7.868;2023-08-07T23:47:45;7.57;;;2.60;;
9924;SDS011;5001;51.674;7.868;2023-08-07T23:50:12;5.10;;;2.30;;
9924;SDS011;5001;51.674;7.868;2023-08-07T23:52:39;5.77;;;2.20;;
9924;SDS011;5001;51.674;7.868;2023-08-07T23:55:06;4.80;;;2.30;;
9924;SDS011;5001;51.674;7.868;2023-08-07T23:57:33;3.43;;;2.00;;
